sensor_id;sensor_type;location;lat;lon;timestamp;P1;durP1;ratioP1;P2;durP2;ratioP2
43504;SDS011;29098;48.184;16.298;2022-09-01T00:02:11;6.32;;;4.00;;
43504;SDS011;29098;48.184;16.298;2022-09-01T00:04:40;7.45;;;4.07;;
43504;SDS011;29098;48.184;16.298;2022-09-01T00:07:08;6.35;;;4.32;;
43504;SDS011;29098;48.184;16.298;2022-09-01T00:09:35;5.97;;;4.53;;
43504;SDS011;29098;48.184;16.298;2022-09-01T00:12:01;5.97;;;3.88;;
43504;SDS011;29098;48.184;16.298;2022-09-01T00:14:29;5.15;;;4.03;;
43504;SDS011;29098;48.184;16.298;2022-09-01T00:16:58;6.25;;;4.65;;
43504;SDS011;29098;48.184;16.298;2022-09-01T00:19:25;6.88;;;5.32;;
43504;SDS011;29098;48.184;16.298;2022-09-01T00:21:51;6.15;;;4.35;;
43504;SDS011;29098;48.184;16.298;2022-09-01T00:24:17;6.57;;;4.70;;
43504;SDS011;29098;48.184;16.298;2022-09-01T00:26:44;8.13;;;4.63;;
43504;SDS011;29098;48.184;16.298;2022-09-01T00:29:10;6.93;;;4.90;;
43504;SDS011;29098;48.184;16.298;2022-09-01T00:31:36;6.50;;;4.50;;
43504;SDS011;29098;48.184;16.298;2022-09-01T00:34:03;6.30;;;5.13;;
43504;SDS011;29098;48.184;16.298;2022-09-01T00:36:29;6.10;;;4.90;;
43504;SDS011;29098;48.184;16.298;2022-09-01T00:38:54;8.77;;;4.18;;
43504;SDS011;29098;48.184;16.298;2022-09-01T00:41:21;6.18;;;4.22;;
43504;SDS011;29098;48.184;16.298;2022-09-01T00:43:56;5.82;;;4.47;;
43504;SDS011;29098;48.184;16.298;2022-09-01T00:46:27;7.10;;;4.55;;
43504;SDS011;29098;48.184;16.298;2022-09-01T00:48:58;6.50;;;4.30;;
43504;SDS011;29098;48.184;16.298;2022-09-01T00:51:27;6.03;;;4.68;;
43504;SDS011;29098;48.184;16.298;2022-09-01T00:53:53;7.50;;;4.80;;
43504;SDS011;29098;48.184;16.298;2022-09-01T00:56:20;5.90;;;4.25;;
43504;SDS011;29098;48.184;16.298;2022-09-01T00:58:47;5.63;;;4.40;;
43504;SDS011;29098;48.184;16.298;2022-09-01T01:01:13;5.55;;;4.15;;
43504;SDS011;29098;48.184;16.298;2022-09-01T01:03:38;6.93;;;4.70;;
43504;SDS011;29098;48.184;16.298;2022-09-01T01:06:06;6.40;;;4.50;;
43504;SDS011;29098;48.184;16.298;2022-09-01T01:08:34;5.90;;;4.45;;
43504;SDS011;29098;48.184;16.298;2022-09-01T01:13:30;7.07;;;4.60;;
43504;SDS011;29098;48.184;16.298;2022-09-01T01:16:00;6.50;;;5.05;;
43504;SDS011;29098;48.184;16.298;2022-09-01T01:18:27;5.68;;;4.43;;
43504;SDS011;29098;48.184;16.298;2022-09-01T01:26:50;6.32;;;4.30;;
43504;SDS011;29098;48.184;16.298;2022-09-01T01:29:16;6.60;;;4.38;;
43504;SDS011;29098;48.184;16.298;2022-09-01T01:31:43;9.70;;;4.95;;
43504;SDS011;29098;48.184;16.298;2022-09-01T01:34:11;7.85;;;4.40;;
43504;SDS011;29098;48.184;16.298;2022-09-01T01:36:39;6.55;;;3.95;;
43504;SDS011;29098;48.184;16.298;2022-09-01T01:39:07;6.38;;;4.40;;
43504;SDS011;29098;48.184;16.298;2022-09-01T01:41:35;5.40;;;4.20;;
43504;SDS011;29098;48.184;16.298;2022-09-01T01:44:06;6.85;;;4.50;;
43504;SDS011;29098;48.184;16.298;2022-09-01T01:46:33;6.85;;;4.68;;
43504;SDS011;29098;48.184;16.298;2022-09-01T01:48:59;8.98;;;5.10;;
43504;SDS011;29098;48.184;16.298;2022-09-01T01:51:28;6.75;;;4.43;;
43504;SDS011;29098;48.184;16.298;2022-09-01T01:53:57;7.55;;;4.40;;
43504;SDS011;29098;48.184;16.298;2022-09-01T01:56:26;7.10;;;4.85;;
43504;SDS011;29098;48.184;16.298;2022-09-01T01:58:52;6.10;;;4.80;;
43504;SDS011;29098;48.184;16.298;2022-09-01T02:01:24;7.13;;;5.45;;
43504;SDS011;29098;48.184;16.298;2022-09-01T02:03:52;6.25;;;4.40;;
43504;SDS011;29098;48.184;16.298;2022-09-01T02:06:20;9.55;;;4.93;;
43504;SDS011;29098;48.184;16.298;2022-09-01T02:08:48;7.40;;;5.00;;
43504;SDS011;29098;48.184;16.298;2022-09-01T02:11:20;7.53;;;5.07;;
43504;SDS011;29098;48.184;16.298;2022-09-01T02:13:46;9.10;;;4.90;;
43504;SDS011;29098;48.184;16.298;2022-09-01T02:16:13;8.82;;;4.85;;
43504;SDS011;29098;48.184;16.298;2022-09-01T02:18:44;7.88;;;4.53;;
43504;SDS011;29098;48.184;16.298;2022-09-01T02:21:15;6.75;;;4.78;;
43504;SDS011;29098;48.184;16.298;2022-09-01T02:23:46;5.50;;;4.00;;
43504;SDS011;29098;48.184;16.298;2022-09-01T02:26:27;8.98;;;4.70;;
43504;SDS011;29098;48.184;16.298;2022-09-01T02:28:55;6.45;;;4.75;;
43504;SDS011;29098;48.184;16.298;2022-09-01T02:31:23;7.45;;;4.50;;
43504;SDS011;29098;48.184;16.298;2022-09-01T02:33:49;7.22;;;4.38;;
43504;SDS011;29098;48.184;16.298;2022-09-01T02:36:15;6.25;;;3.78;;
43504;SDS011;29098;48.184;16.298;2022-09-01T02:38:43;5.60;;;4.30;;
43504;SDS011;29098;48.184;16.298;2022-09-01T02:41:10;5.35;;;3.85;;
43504;SDS011;29098;48.184;16.298;2022-09-01T02:43:38;7.47;;;4.30;;
43504;SDS011;29098;48.184;16.298;2022-09-01T02:46:05;7.28;;;4.22;;
43504;SDS011;29098;48.184;16.298;2022-09-01T02:48:34;6.03;;;4.97;;
43504;SDS011;29098;48.184;16.298;2022-09-01T02:51:03;6.15;;;3.92;;
43504;SDS011;29098;48.184;16.298;2022-09-01T02:53:32;6.45;;;4.32;;
43504;SDS011;29098;48.184;16.298;2022-09-01T02:56:01;8.80;;;4.35;;
43504;SDS011;29098;48.184;16.298;2022-09-01T02:58:28;6.65;;;4.15;;
43504;SDS011;29098;48.184;16.298;2022-09-01T03:03:55;5.38;;;3.20;;
43504;SDS011;29098;48.184;16.298;2022-09-01T03:06:26;10.45;;;4.88;;
43504;SDS011;29098;48.184;16.298;2022-09-01T03:08:53;7.22;;;4.13;;
43504;SDS011;29098;48.184;16.298;2022-09-01T03:11:22;6.60;;;4.00;;
43504;SDS011;29098;48.184;16.298;2022-09-01T03:13:48;5.72;;;3.80;;
43504;SDS011;29098;48.184;16.298;2022-09-01T03:16:14;8.30;;;4.82;;
43504;SDS011;29098;48.184;16.298;2022-09-01T03:18:40;5.30;;;4.18;;
43504;SDS011;29098;48.184;16.298;2022-09-01T03:21:06;7.13;;;4.97;;
43504;SDS011;29098;48.184;16.298;2022-09-01T03:23:34;5.75;;;3.78;;
43504;SDS011;29098;48.184;16.298;2022-09-01T03:26:00;5.00;;;3.72;;
43504;SDS011;29098;48.184;16.298;2022-09-01T03:28:26;5.95;;;4.13;;
43504;SDS011;29098;48.184;16.298;2022-09-01T03:30:53;6.22;;;4.70;;
43504;SDS011;29098;48.184;16.298;2022-09-01T03:33:20;7.32;;;4.47;;
43504;SDS011;29098;48.184;16.298;2022-09-01T03:35:47;7.22;;;3.92;;
43504;SDS011;29098;48.184;16.298;2022-09-01T03:38:13;6.60;;;4.30;;
43504;SDS011;29098;48.184;16.298;2022-09-01T03:40:46;6.18;;;4.07;;
43504;SDS011;29098;48.184;16.298;2022-09-01T03:43:13;5.60;;;4.30;;
43504;SDS011;29098;48.184;16.298;2022-09-01T03:45:40;5.82;;;4.32;;
43504;SDS011;29098;48.184;16.298;2022-09-01T03:48:08;8.48;;;4.63;;
43504;SDS011;29098;48.184;16.298;2022-09-01T03:50:38;8.10;;;5.13;;
43504;SDS011;29098;48.184;16.298;2022-09-01T03:53:10;8.02;;;4.53;;
43504;SDS011;29098;48.184;16.298;2022-09-01T03:55:37;6.03;;;4.22;;
43504;SDS011;29098;48.184;16.298;2022-09-01T03:58:05;6.20;;;4.03;;
43504;SDS011;29098;48.184;16.298;2022-09-01T04:00:34;8.20;;;4.35;;
43504;SDS011;29098;48.184;16.298;2022-09-01T04:03:06;7.43;;;4.43;;
43504;SDS011;29098;48.184;16.298;2022-09-01T04:05:35;6.85;;;4.32;;
43504;SDS011;29098;48.184;16.298;2022-09-01T04:08:03;4.82;;;3.55;;
43504;SDS011;29098;48.184;16.298;2022-09-01T04:10:31;7.90;;;4.43;;
43504;SDS011;29098;48.184;16.298;2022-09-01T04:12:59;7.38;;;3.55;;
43504;SDS011;29098;48.184;16.298;2022-09-01T04:15:25;7.10;;;3.67;;
43504;SDS011;29098;48.184;16.298;2022-09-01T04:17:52;6.72;;;3.83;;
43504;SDS011;29098;48.184;16.298;2022-09-01T04:20:44;5.82;;;4.13;;
43504;SDS011;29098;48.184;16.298;2022-09-01T04:23:18;6.32;;;3.67;;
43504;SDS011;29098;48.184;16.298;2022-09-01T04:25:52;4.63;;;3.83;;
43504;SDS011;29098;48.184;16.298;2022-09-01T04:28:20;7.43;;;3.30;;
43504;SDS011;29098;48.184;16.298;2022-09-01T04:30:56;6.50;;;3.65;;
43504;SDS011;29098;48.184;16.298;2022-09-01T04:33:26;6.05;;;3.42;;
43504;SDS011;29098;48.184;16.298;2022-09-01T04:36:03;7.45;;;3.47;;
43504;SDS011;29098;48.184;16.298;2022-09-01T04:38:43;7.75;;;3.78;;
43504;SDS011;29098;48.184;16.298;2022-09-01T04:41:09;6.80;;;3.65;;
43504;SDS011;29098;48.184;16.298;2022-09-01T04:43:40;7.60;;;3.47;;
43504;SDS011;29098;48.184;16.298;2022-09-01T04:46:06;4.30;;;2.75;;
43504;SDS011;29098;48.184;16.298;2022-09-01T04:48:31;11.10;;;3.28;;
43504;SDS011;29098;48.184;16.298;2022-09-01T04:50:59;6.65;;;3.97;;
43504;SDS011;29098;48.184;16.298;2022-09-01T04:53:25;5.95;;;3.35;;
43504;SDS011;29098;48.184;16.298;2022-09-01T04:55:51;7.25;;;3.50;;
43504;SDS011;29098;48.184;16.298;2022-09-01T04:58:18;5.72;;;3.30;;
43504;SDS011;29098;48.184;16.298;2022-09-01T05:00:46;5.55;;;3.08;;
43504;SDS011;29098;48.184;16.298;2022-09-01T05:03:15;7.78;;;3.08;;
43504;SDS011;29098;48.184;16.298;2022-09-01T05:05:45;7.05;;;3.28;;
43504;SDS011;29098;48.184;16.298;2022-09-01T05:08:12;5.13;;;3.20;;
43504;SDS011;29098;48.184;16.298;2022-09-01T05:10:44;6.95;;;3.92;;
43504;SDS011;29098;48.184;16.298;2022-09-01T05:13:17;5.38;;;3.38;;
43504;SDS011;29098;48.184;16.298;2022-09-01T05:15:44;5.15;;;3.20;;
43504;SDS011;29098;48.184;16.298;2022-09-01T05:18:15;7.90;;;3.13;;
43504;SDS011;29098;48.184;16.298;2022-09-01T05:20:48;5.95;;;3.10;;
43504;SDS011;29098;48.184;16.298;2022-09-01T05:23:15;6.00;;;2.88;;
43504;SDS011;29098;48.184;16.298;2022-09-01T05:25:44;6.35;;;2.88;;
43504;SDS011;29098;48.184;16.298;2022-09-01T05:28:13;5.00;;;2.97;;
43504;SDS011;29098;48.184;16.298;2022-09-01T05:30:41;4.75;;;3.03;;
43504;SDS011;29098;48.184;16.298;2022-09-01T05:33:07;4.47;;;2.70;;
43504;SDS011;29098;48.184;16.298;2022-09-01T05:35:39;6.38;;;3.03;;
43504;SDS011;29098;48.184;16.298;2022-09-01T05:38:07;5.22;;;2.70;;
43504;SDS011;29098;48.184;16.298;2022-09-01T05:40:40;6.68;;;2.67;;
43504;SDS011;29098;48.184;16.298;2022-09-01T05:43:11;5.53;;;2.67;;
43504;SDS011;29098;48.184;16.298;2022-09-01T05:45:41;6.45;;;2.90;;
43504;SDS011;29098;48.184;16.298;2022-09-01T05:48:08;5.45;;;2.60;;
43504;SDS011;29098;48.184;16.298;2022-09-01T05:50:38;5.10;;;2.70;;
43504;SDS011;29098;48.184;16.298;2022-09-01T05:53:06;5.25;;;2.55;;
43504;SDS011;29098;48.184;16.298;2022-09-01T05:55:40;6.82;;;3.35;;
43504;SDS011;29098;48.184;16.298;2022-09-01T05:58:08;11.35;;;4.82;;
43504;SDS011;29098;48.184;16.298;2022-09-01T06:00:37;5.57;;;2.60;;
43504;SDS011;29098;48.184;16.298;2022-09-01T06:03:07;7.30;;;2.75;;
43504;SDS011;29098;48.184;16.298;2022-09-01T06:05:34;3.95;;;2.30;;
43504;SDS011;29098;48.184;16.298;2022-09-01T06:08:00;6.15;;;2.28;;
43504;SDS011;29098;48.184;16.298;2022-09-01T06:10:27;5.13;;;2.30;;
43504;SDS011;29098;48.184;16.298;2022-09-01T06:12:53;3.83;;;2.00;;
43504;SDS011;29098;48.184;16.298;2022-09-01T06:15:19;6.38;;;2.05;;
43504;SDS011;29098;48.184;16.298;2022-09-01T06:17:44;4.80;;;2.10;;
43504;SDS011;29098;48.184;16.298;2022-09-01T06:20:13;3.35;;;2.15;;
43504;SDS011;29098;48.184;16.298;2022-09-01T06:22:42;6.28;;;2.40;;
43504;SDS011;29098;48.184;16.298;2022-09-01T06:25:08;5.45;;;2.45;;
43504;SDS011;29098;48.184;16.298;2022-09-01T06:27:34;5.55;;;2.45;;
43504;SDS011;29098;48.184;16.298;2022-09-01T06:30:06;6.90;;;2.28;;
43504;SDS011;29098;48.184;16.298;2022-09-01T06:32:39;4.22;;;2.00;;
43504;SDS011;29098;48.184;16.298;2022-09-01T06:35:07;4.00;;;1.90;;
43504;SDS011;29098;48.184;16.298;2022-09-01T06:37:36;3.55;;;1.90;;
43504;SDS011;29098;48.184;16.298;2022-09-01T06:40:03;5.78;;;2.17;;
43504;SDS011;29098;48.184;16.298;2022-09-01T06:42:29;4.80;;;2.10;;
43504;SDS011;29098;48.184;16.298;2022-09-01T06:44:59;5.15;;;2.63;;
43504;SDS011;29098;48.184;16.298;2022-09-01T06:47:25;4.07;;;2.08;;
43504;SDS011;29098;48.184;16.298;2022-09-01T06:49:52;4.18;;;2.00;;
43504;SDS011;29098;48.184;16.298;2022-09-01T06:52:23;4.55;;;1.75;;
43504;SDS011;29098;48.184;16.298;2022-09-01T06:54:49;5.85;;;2.15;;
43504;SDS011;29098;48.184;16.298;2022-09-01T06:57:18;3.72;;;1.80;;
43504;SDS011;29098;48.184;16.298;2022-09-01T06:59:43;5.43;;;1.90;;
43504;SDS011;29098;48.184;16.298;2022-09-01T07:02:09;5.15;;;1.77;;
43504;SDS011;29098;48.184;16.298;2022-09-01T07:04:40;3.15;;;1.85;;
43504;SDS011;29098;48.184;16.298;2022-09-01T07:07:10;5.75;;;2.00;;
43504;SDS011;29098;48.184;16.298;2022-09-01T07:09:37;3.25;;;1.77;;
43504;SDS011;29098;48.184;16.298;2022-09-01T07:12:04;3.58;;;1.80;;
43504;SDS011;29098;48.184;16.298;2022-09-01T07:14:30;3.80;;;1.80;;
43504;SDS011;29098;48.184;16.298;2022-09-01T07:16:55;4.43;;;1.80;;
43504;SDS011;29098;48.184;16.298;2022-09-01T07:19:22;6.60;;;2.80;;
43504;SDS011;29098;48.184;16.298;2022-09-01T07:21:50;3.75;;;1.90;;
43504;SDS011;29098;48.184;16.298;2022-09-01T07:24:16;8.00;;;3.42;;
43504;SDS011;29098;48.184;16.298;2022-09-01T07:26:44;6.55;;;2.92;;
43504;SDS011;29098;48.184;16.298;2022-09-01T07:29:15;4.47;;;2.10;;
43504;SDS011;29098;48.184;16.298;2022-09-01T07:31:43;4.45;;;1.60;;
43504;SDS011;29098;48.184;16.298;2022-09-01T07:34:10;8.40;;;1.92;;
43504;SDS011;29098;48.184;16.298;2022-09-01T07:36:39;5.00;;;1.63;;
43504;SDS011;29098;48.184;16.298;2022-09-01T07:39:06;3.78;;;2.03;;
43504;SDS011;29098;48.184;16.298;2022-09-01T07:41:32;3.30;;;1.70;;
43504;SDS011;29098;48.184;16.298;2022-09-01T07:43:59;3.72;;;1.55;;
43504;SDS011;29098;48.184;16.298;2022-09-01T07:46:27;2.45;;;1.40;;
43504;SDS011;29098;48.184;16.298;2022-09-01T07:48:56;4.65;;;1.70;;
43504;SDS011;29098;48.184;16.298;2022-09-01T07:51:22;5.07;;;1.48;;
43504;SDS011;29098;48.184;16.298;2022-09-01T07:53:48;2.65;;;1.27;;
43504;SDS011;29098;48.184;16.298;2022-09-01T07:56:15;3.67;;;1.40;;
43504;SDS011;29098;48.184;16.298;2022-09-01T07:58:44;2.42;;;1.23;;
43504;SDS011;29098;48.184;16.298;2022-09-01T08:01:12;3.85;;;1.35;;
43504;SDS011;29098;48.184;16.298;2022-09-01T08:03:43;4.00;;;1.38;;
43504;SDS011;29098;48.184;16.298;2022-09-01T08:06:11;3.08;;;1.42;;
43504;SDS011;29098;48.184;16.298;2022-09-01T08:08:39;3.25;;;1.42;;
43504;SDS011;29098;48.184;16.298;2022-09-01T08:11:06;2.72;;;1.20;;
43504;SDS011;29098;48.184;16.298;2022-09-01T08:13:35;3.33;;;1.33;;
43504;SDS011;29098;48.184;16.298;2022-09-01T08:16:04;2.90;;;1.30;;
43504;SDS011;29098;48.184;16.298;2022-09-01T08:18:32;3.20;;;1.45;;
43504;SDS011;29098;48.184;16.298;2022-09-01T08:20:58;2.65;;;1.48;;
43504;SDS011;29098;48.184;16.298;2022-09-01T08:23:24;4.60;;;1.35;;
43504;SDS011;29098;48.184;16.298;2022-09-01T08:25:51;2.92;;;1.45;;
43504;SDS011;29098;48.184;16.298;2022-09-01T08:28:17;5.32;;;1.35;;
43504;SDS011;29098;48.184;16.298;2022-09-01T08:30:44;4.40;;;1.40;;
43504;SDS011;29098;48.184;16.298;2022-09-01T08:33:10;3.58;;;1.33;;
43504;SDS011;29098;48.184;16.298;2022-09-01T08:35:39;4.70;;;1.20;;
43504;SDS011;29098;48.184;16.298;2022-09-01T08:38:06;9.23;;;1.60;;
43504;SDS011;29098;48.184;16.298;2022-09-01T08:40:35;3.13;;;1.25;;
43504;SDS011;29098;48.184;16.298;2022-09-01T08:45:48;5.15;;;1.35;;
43504;SDS011;29098;48.184;16.298;2022-09-01T08:48:38;2.85;;;1.50;;
43504;SDS011;29098;48.184;16.298;2022-09-01T08:51:15;2.63;;;1.30;;
43504;SDS011;29098;48.184;16.298;2022-09-01T08:53:54;3.88;;;1.80;;
43504;SDS011;29098;48.184;16.298;2022-09-01T08:56:25;1.88;;;1.13;;
43504;SDS011;29098;48.184;16.298;2022-09-01T08:58:51;4.05;;;1.58;;
43504;SDS011;29098;48.184;16.298;2022-09-01T09:01:26;5.75;;;1.33;;
43504;SDS011;29098;48.184;16.298;2022-09-01T09:07:02;2.95;;;1.50;;
43504;SDS011;29098;48.184;16.298;2022-09-01T09:09:56;4.53;;;1.73;;
43504;SDS011;29098;48.184;16.298;2022-09-01T09:20:43;4.47;;;1.40;;
43504;SDS011;29098;48.184;16.298;2022-09-01T09:23:23;4.45;;;1.40;;
43504;SDS011;29098;48.184;16.298;2022-09-01T09:25:53;3.23;;;1.20;;
43504;SDS011;29098;48.184;16.298;2022-09-01T09:28:20;3.50;;;1.20;;
43504;SDS011;29098;48.184;16.298;2022-09-01T09:30:45;3.60;;;1.10;;
43504;SDS011;29098;48.184;16.298;2022-09-01T09:33:11;3.33;;;1.20;;
43504;SDS011;29098;48.184;16.298;2022-09-01T09:36:20;3.42;;;1.05;;
43504;SDS011;29098;48.184;16.298;2022-09-01T09:39:11;4.57;;;2.10;;
43504;SDS011;29098;48.184;16.298;2022-09-01T09:41:40;3.75;;;1.85;;
43504;SDS011;29098;48.184;16.298;2022-09-01T09:44:15;3.75;;;1.30;;
43504;SDS011;29098;48.184;16.298;2022-09-01T09:46:49;3.33;;;1.33;;
43504;SDS011;29098;48.184;16.298;2022-09-01T09:49:31;3.45;;;1.17;;
43504;SDS011;29098;48.184;16.298;2022-09-01T09:54:27;5.68;;;1.80;;
43504;SDS011;29098;48.184;16.298;2022-09-01T10:02:19;2.33;;;1.30;;
43504;SDS011;29098;48.184;16.298;2022-09-01T10:04:50;3.33;;;1.20;;
43504;SDS011;29098;48.184;16.298;2022-09-01T10:09:55;2.22;;;1.17;;
43504;SDS011;29098;48.184;16.298;2022-09-01T10:12:24;2.83;;;1.13;;
43504;SDS011;29098;48.184;16.298;2022-09-01T10:15:04;4.45;;;1.67;;
43504;SDS011;29098;48.184;16.298;2022-09-01T10:17:33;3.13;;;1.20;;
43504;SDS011;29098;48.184;16.298;2022-09-01T10:20:12;2.38;;;1.02;;
43504;SDS011;29098;48.184;16.298;2022-09-01T10:22:45;3.55;;;1.27;;
43504;SDS011;29098;48.184;16.298;2022-09-01T10:25:22;5.78;;;1.38;;
43504;SDS011;29098;48.184;16.298;2022-09-01T10:27:55;5.22;;;1.88;;
43504;SDS011;29098;48.184;16.298;2022-09-01T10:30:43;3.47;;;1.48;;
43504;SDS011;29098;48.184;16.298;2022-09-01T10:33:12;2.55;;;1.30;;
43504;SDS011;29098;48.184;16.298;2022-09-01T10:35:40;3.05;;;1.02;;
43504;SDS011;29098;48.184;16.298;2022-09-01T10:38:10;3.58;;;1.10;;
43504;SDS011;29098;48.184;16.298;2022-09-01T10:40:45;3.10;;;1.10;;
43504;SDS011;29098;48.184;16.298;2022-09-01T10:45:52;5.88;;;2.30;;
43504;SDS011;29098;48.184;16.298;2022-09-01T10:50:44;3.28;;;1.10;;
43504;SDS011;29098;48.184;16.298;2022-09-01T10:53:34;2.67;;;1.20;;
43504;SDS011;29098;48.184;16.298;2022-09-01T10:56:04;3.35;;;1.30;;
43504;SDS011;29098;48.184;16.298;2022-09-01T11:09:38;3.05;;;0.95;;
43504;SDS011;29098;48.184;16.298;2022-09-01T11:14:50;3.28;;;1.27;;
43504;SDS011;29098;48.184;16.298;2022-09-01T11:23:04;2.60;;;1.00;;
43504;SDS011;29098;48.184;16.298;2022-09-01T11:28:05;2.20;;;1.00;;
43504;SDS011;29098;48.184;16.298;2022-09-01T11:30:40;3.53;;;1.40;;
43504;SDS011;29098;48.184;16.298;2022-09-01T11:33:31;3.22;;;1.10;;
43504;SDS011;29098;48.184;16.298;2022-09-01T11:36:15;2.60;;;1.17;;
43504;SDS011;29098;48.184;16.298;2022-09-01T11:41:27;5.25;;;1.65;;
43504;SDS011;29098;48.184;16.298;2022-09-01T11:43:58;2.72;;;0.90;;
43504;SDS011;29098;48.184;16.298;2022-09-01T11:46:28;2.42;;;0.82;;
43504;SDS011;29098;48.184;16.298;2022-09-01T11:48:57;2.28;;;1.13;;
43504;SDS011;29098;48.184;16.298;2022-09-01T11:51:25;3.25;;;1.42;;
43504;SDS011;29098;48.184;16.298;2022-09-01T11:53:57;3.97;;;1.10;;
43504;SDS011;29098;48.184;16.298;2022-09-01T11:56:25;4.10;;;1.25;;
43504;SDS011;29098;48.184;16.298;2022-09-01T11:58:54;3.30;;;1.13;;
43504;SDS011;29098;48.184;16.298;2022-09-01T12:01:21;4.50;;;1.10;;
43504;SDS011;29098;48.184;16.298;2022-09-01T12:03:55;4.70;;;1.02;;
43504;SDS011;29098;48.184;16.298;2022-09-01T12:06:24;2.25;;;1.02;;
43504;SDS011;29098;48.184;16.298;2022-09-01T12:08:55;2.88;;;1.02;;
43504;SDS011;29098;48.184;16.298;2022-09-01T12:11:26;3.63;;;1.00;;
43504;SDS011;29098;48.184;16.298;2022-09-01T12:16:22;5.28;;;1.90;;
43504;SDS011;29098;48.184;16.298;2022-09-01T12:18:49;4.05;;;1.60;;
43504;SDS011;29098;48.184;16.298;2022-09-01T12:21:23;3.85;;;1.23;;
43504;SDS011;29098;48.184;16.298;2022-09-01T12:23:49;2.45;;;0.80;;
43504;SDS011;29098;48.184;16.298;2022-09-01T12:26:22;7.32;;;1.13;;
43504;SDS011;29098;48.184;16.298;2022-09-01T12:28:51;3.20;;;0.90;;
43504;SDS011;29098;48.184;16.298;2022-09-01T12:31:18;2.88;;;0.80;;
43504;SDS011;29098;48.184;16.298;2022-09-01T12:33:46;2.70;;;0.95;;
43504;SDS011;29098;48.184;16.298;2022-09-01T12:36:23;1.95;;;1.00;;
43504;SDS011;29098;48.184;16.298;2022-09-01T12:38:52;2.88;;;0.93;;
43504;SDS011;29098;48.184;16.298;2022-09-01T12:41:33;4.25;;;1.20;;
43504;SDS011;29098;48.184;16.298;2022-09-01T12:46:59;5.43;;;0.82;;
43504;SDS011;29098;48.184;16.298;2022-09-01T12:49:35;3.58;;;1.10;;
43504;SDS011;29098;48.184;16.298;2022-09-01T12:57:25;3.00;;;1.05;;
43504;SDS011;29098;48.184;16.298;2022-09-01T13:02:39;2.65;;;1.10;;
43504;SDS011;29098;48.184;16.298;2022-09-01T13:08:05;3.95;;;0.90;;
43504;SDS011;29098;48.184;16.298;2022-09-01T13:10:38;3.25;;;1.20;;
43504;SDS011;29098;48.184;16.298;2022-09-01T13:13:04;2.03;;;0.82;;
43504;SDS011;29098;48.184;16.298;2022-09-01T13:15:31;3.90;;;1.23;;
43504;SDS011;29098;48.184;16.298;2022-09-01T13:17:57;2.30;;;0.75;;
43504;SDS011;29098;48.184;16.298;2022-09-01T13:20:23;2.17;;;0.80;;
43504;SDS011;29098;48.184;16.298;2022-09-01T13:22:48;4.32;;;2.33;;
43504;SDS011;29098;48.184;16.298;2022-09-01T13:25:15;4.60;;;1.10;;
43504;SDS011;29098;48.184;16.298;2022-09-01T13:27:44;3.97;;;1.05;;
43504;SDS011;29098;48.184;16.298;2022-09-01T13:30:13;3.22;;;0.80;;
43504;SDS011;29098;48.184;16.298;2022-09-01T13:32:41;2.95;;;0.93;;
43504;SDS011;29098;48.184;16.298;2022-09-01T13:35:07;2.90;;;0.88;;
43504;SDS011;29098;48.184;16.298;2022-09-01T13:37:33;2.50;;;0.98;;
43504;SDS011;29098;48.184;16.298;2022-09-01T13:39:59;2.42;;;0.65;;
43504;SDS011;29098;48.184;16.298;2022-09-01T13:42:25;1.92;;;0.65;;
43504;SDS011;29098;48.184;16.298;2022-09-01T13:44:51;3.10;;;0.77;;
43504;SDS011;29098;48.184;16.298;2022-09-01T13:47:16;3.15;;;0.70;;
43504;SDS011;29098;48.184;16.298;2022-09-01T13:49:42;2.63;;;0.63;;
43504;SDS011;29098;48.184;16.298;2022-09-01T13:52:08;3.15;;;1.48;;
43504;SDS011;29098;48.184;16.298;2022-09-01T13:54:34;4.03;;;0.90;;
43504;SDS011;29098;48.184;16.298;2022-09-01T13:56:59;2.15;;;1.00;;
43504;SDS011;29098;48.184;16.298;2022-09-01T13:59:25;4.78;;;1.15;;
43504;SDS011;29098;48.184;16.298;2022-09-01T14:01:50;2.78;;;0.90;;
43504;SDS011;29098;48.184;16.298;2022-09-01T14:04:16;1.50;;;0.70;;
43504;SDS011;29098;48.184;16.298;2022-09-01T14:06:43;2.13;;;1.10;;
43504;SDS011;29098;48.184;16.298;2022-09-01T14:09:10;3.40;;;1.42;;
43504;SDS011;29098;48.184;16.298;2022-09-01T14:11:36;1.63;;;0.88;;
43504;SDS011;29098;48.184;16.298;2022-09-01T14:14:02;1.88;;;0.60;;
43504;SDS011;29098;48.184;16.298;2022-09-01T14:16:28;1.77;;;0.80;;
43504;SDS011;29098;48.184;16.298;2022-09-01T14:18:53;2.33;;;0.93;;
43504;SDS011;29098;48.184;16.298;2022-09-01T14:21:19;2.50;;;1.10;;
43504;SDS011;29098;48.184;16.298;2022-09-01T14:23:44;3.60;;;0.90;;
43504;SDS011;29098;48.184;16.298;2022-09-01T14:26:11;2.20;;;1.10;;
43504;SDS011;29098;48.184;16.298;2022-09-01T14:28:38;6.20;;;1.00;;
43504;SDS011;29098;48.184;16.298;2022-09-01T14:31:09;2.58;;;0.90;;
43504;SDS011;29098;48.184;16.298;2022-09-01T14:33:36;1.98;;;0.90;;
43504;SDS011;29098;48.184;16.298;2022-09-01T14:36:03;1.92;;;0.80;;
43504;SDS011;29098;48.184;16.298;2022-09-01T14:38:30;3.17;;;1.15;;
43504;SDS011;29098;48.184;16.298;2022-09-01T14:40:56;2.95;;;1.00;;
43504;SDS011;29098;48.184;16.298;2022-09-01T14:43:21;1.92;;;0.73;;
43504;SDS011;29098;48.184;16.298;2022-09-01T14:45:48;1.63;;;0.70;;
43504;SDS011;29098;48.184;16.298;2022-09-01T14:48:17;3.25;;;0.85;;
43504;SDS011;29098;48.184;16.298;2022-09-01T14:50:45;2.25;;;0.93;;
43504;SDS011;29098;48.184;16.298;2022-09-01T14:53:12;1.92;;;0.95;;
43504;SDS011;29098;48.184;16.298;2022-09-01T14:55:38;1.60;;;0.70;;
43504;SDS011;29098;48.184;16.298;2022-09-01T14:58:03;1.95;;;0.85;;
43504;SDS011;29098;48.184;16.298;2022-09-01T15:00:30;2.88;;;0.60;;
43504;SDS011;29098;48.184;16.298;2022-09-01T15:02:59;1.75;;;0.85;;
43504;SDS011;29098;48.184;16.298;2022-09-01T15:05:24;1.67;;;0.60;;
43504;SDS011;29098;48.184;16.298;2022-09-01T15:07:50;2.42;;;0.60;;
43504;SDS011;29098;48.184;16.298;2022-09-01T15:10:17;2.90;;;1.17;;
43504;SDS011;29098;48.184;16.298;2022-09-01T15:12:45;2.28;;;1.00;;
43504;SDS011;29098;48.184;16.298;2022-09-01T15:15:11;3.22;;;0.73;;
43504;SDS011;29098;48.184;16.298;2022-09-01T15:17:36;2.28;;;0.82;;
43504;SDS011;29098;48.184;16.298;2022-09-01T15:20:03;2.35;;;1.13;;
43504;SDS011;29098;48.184;16.298;2022-09-01T15:22:48;5.53;;;1.05;;
43504;SDS011;29098;48.184;16.298;2022-09-01T15:25:15;2.70;;;0.75;;
43504;SDS011;29098;48.184;16.298;2022-09-01T15:27:41;5.28;;;3.35;;
43504;SDS011;29098;48.184;16.298;2022-09-01T15:30:08;2.28;;;0.98;;
43504;SDS011;29098;48.184;16.298;2022-09-01T15:32:43;2.33;;;0.60;;
43504;SDS011;29098;48.184;16.298;2022-09-01T15:35:09;2.20;;;0.98;;
43504;SDS011;29098;48.184;16.298;2022-09-01T15:37:39;2.85;;;1.00;;
43504;SDS011;29098;48.184;16.298;2022-09-01T15:40:05;2.30;;;0.90;;
43504;SDS011;29098;48.184;16.298;2022-09-01T15:42:32;3.15;;;0.85;;
43504;SDS011;29098;48.184;16.298;2022-09-01T15:45:03;1.92;;;1.00;;
43504;SDS011;29098;48.184;16.298;2022-09-01T15:47:31;2.20;;;0.90;;
43504;SDS011;29098;48.184;16.298;2022-09-01T15:49:57;1.85;;;0.80;;
43504;SDS011;29098;48.184;16.298;2022-09-01T15:52:22;1.73;;;0.75;;
43504;SDS011;29098;48.184;16.298;2022-09-01T15:54:50;3.10;;;0.85;;
43504;SDS011;29098;48.184;16.298;2022-09-01T15:57:16;5.50;;;1.70;;
43504;SDS011;29098;48.184;16.298;2022-09-01T15:59:42;2.30;;;0.93;;
43504;SDS011;29098;48.184;16.298;2022-09-01T16:02:08;2.75;;;1.10;;
43504;SDS011;29098;48.184;16.298;2022-09-01T16:04:34;1.85;;;0.82;;
43504;SDS011;29098;48.184;16.298;2022-09-01T16:07:00;1.20;;;0.60;;